Time;durP1;ratioP1;P1;durP2;ratioP2;P2;SDS_P1;SDS_P2;PMS_P1;PMS_P2;Temp;Humidity;BMP_temperature;BMP_pressure;BME280_temperature;BME280_humidity;BME280_pressure;Samples;Min_cycle;Max_cycle;Signal;HPM_P1;HPM_P2
2024/01/12 00:01:41;;;;;;;17.57;7.70;;;;;1.20;102757.00;;;;5037584;28;20229;-73
2024/01/12 00:04:28;;;;;;;11.80;5.40;;;;;1.20;102749.00;;;;5042973;28;20246;-72
2024/01/12 00:07:14;;;;;;;20.00;10.47;;;;;1.10;102761.00;;;;5040507;28;20296;-70
2024/01/12 00:10:02;;;;;;;20.93;7.53;;;;;1.20;102758.00;;;;5042192;28;20256;-70
2024/01/12 00:12:49;;;;;;;16.67;7.83;;;;;1.20;102752.00;;;;5036999;28;20240;-72
2024/01/12 00:15:36;;;;;;;17.20;6.50;;;;;1.20;102757.00;;;;5034824;28;20235;-71
2024/01/12 00:18:22;;;;;;;17.00;8.40;;;;;1.10;102763.00;;;;5033990;28;20685;-69
2024/01/12 00:21:08;;;;;;;17.10;9.30;;;;;1.10;102747.00;;;;5041778;28;20226;-69
2024/01/12 00:23:54;;;;;;;18.20;7.80;;;;;1.20;102743.00;;;;5042879;28;20237;-69
2024/01/12 00:26:42;;;;;;;21.47;8.10;;;;;1.20;102747.00;;;;5043368;28;20225;-69
2024/01/12 00:29:28;;;;;;;19.40;8.30;;;;;1.20;102748.00;;;;5042577;28;20365;-71
2024/01/12 00:32:15;;;;;;;20.40;9.60;;;;;1.20;102746.00;;;;5042427;28;20253;-69
2024/01/12 00:35:01;;;;;;;12.93;7.13;;;;;1.20;102740.00;;;;5035887;28;20237;-72
2024/01/12 00:37:49;;;;;;;22.13;5.70;;;;;1.20;102744.00;;;;5043888;28;20231;-70
2024/01/12 00:40:35;;;;;;;21.77;9.60;;;;;1.20;102743.00;;;;5043462;28;20224;-70
2024/01/12 00:43:23;;;;;;;19.33;8.53;;;;;1.20;102745.00;;;;5036174;28;20235;-70
2024/01/12 00:46:09;;;;;;;13.97;6.77;;;;;1.20;102746.00;;;;5044038;28;20237;-71
2024/01/12 00:48:56;;;;;;;22.93;7.30;;;;;1.20;102748.00;;;;5036527;28;20237;-70
2024/01/12 00:51:42;;;;;;;13.80;7.13;;;;;1.20;102760.00;;;;5037161;28;20264;-71
2024/01/12 00:54:28;;;;;;;20.33;7.77;;;;;1.20;102750.00;;;;5039482;28;20948;-70
2024/01/12 00:57:15;;;;;;;16.33;7.70;;;;;1.20;102743.00;;;;5042259;28;20231;-70
2024/01/12 01:00:04;;;;;;;20.73;8.37;;;;;1.30;102760.00;;;;5033175;28;20911;-70
2024/01/12 01:02:50;;;;;;;22.23;8.90;;;;;1.30;102759.00;;;;5040568;28;20239;-71
2024/01/12 01:05:36;;;;;;;14.00;8.13;;;;;1.30;102756.00;;;;5042074;28;20241;-71
2024/01/12 01:08:22;;;;;;;19.07;6.93;;;;;1.20;102762.00;;;;5045904;28;20233;-70
2024/01/12 01:11:09;;;;;;;19.57;8.10;;;;;1.20;102761.00;;;;5029919;28;20237;-70
2024/01/12 01:13:55;;;;;;;18.67;9.17;;;;;1.20;102754.00;;;;5037229;28;20236;-70
2024/01/12 01:16:43;;;;;;;23.57;9.23;;;;;1.20;102751.00;;;;5042983;28;20230;-70
2024/01/12 01:19:29;;;;;;;22.70;7.30;;;;;1.20;102751.00;;;;5043830;28;20259;-70
2024/01/12 01:22:15;;;;;;;17.77;8.00;;;;;1.20;102747.00;;;;5046244;28;20228;-70
2024/01/12 01:25:02;;;;;;;15.50;6.40;;;;;1.20;102747.00;;;;5042219;28;20614;-68
2024/01/12 01:27:48;;;;;;;20.67;8.53;;;;;1.20;102751.00;;;;5038164;28;20228;-70
2024/01/12 01:30:34;;;;;;;24.40;9.43;;;;;1.20;102755.00;;;;5044231;28;20242;-71
2024/01/12 01:33:22;;;;;;;19.17;8.63;;;;;1.20;102754.00;;;;5044940;28;20238;-70
2024/01/12 01:36:08;;;;;;;23.40;8.63;;;;;1.20;102756.00;;;;5045460;28;20232;-69
2024/01/12 01:38:54;;;;;;;11.90;6.97;;;;;1.20;102754.00;;;;5044344;28;20272;-70
2024/01/12 01:41:41;;;;;;;15.57;8.43;;;;;1.20;102757.00;;;;5040764;28;20432;-71
2024/01/12 01:44:27;;;;;;;18.63;7.73;;;;;1.20;102755.00;;;;5045176;28;20439;-68
2024/01/12 01:47:15;;;;;;;22.87;8.13;;;;;1.20;102752.00;;;;5044033;28;20232;-71
2024/01/12 01:50:04;;;;;;;24.87;9.40;;;;;1.20;102747.00;;;;5040651;28;20260;-72
2024/01/12 01:52:51;;;;;;;14.23;5.47;;;;;1.20;102761.00;;;;5042651;28;20236;-70
2024/01/12 01:55:37;;;;;;;16.87;8.67;;;;;1.20;102762.00;;;;5031578;28;20229;-71
2024/01/12 01:58:24;;;;;;;14.50;8.23;;;;;1.20;102759.00;;;;5040619;28;20239;-70
2024/01/12 02:01:11;;;;;;;18.43;7.93;;;;;1.30;102769.00;;;;5042635;28;20256;-71
2024/01/12 02:03:58;;;;;;;18.10;8.23;;;;;1.20;102757.00;;;;5040820;28;20278;-70
2024/01/12 02:06:46;;;;;;;16.80;7.20;;;;;1.20;102758.00;;;;5034618;28;20231;-71
2024/01/12 02:09:33;;;;;;;18.70;7.90;;;;;1.20;102770.00;;;;5045234;28;20242;-70
2024/01/12 02:12:19;;;;;;;17.07;7.63;;;;;1.20;102754.00;;;;5039870;28;20241;-70
2024/01/12 02:15:07;;;;;;;21.60;9.87;;;;;1.20;102749.00;;;;5045242;28;20232;-71
2024/01/12 02:17:54;;;;;;;21.33;8.57;;;;;1.20;102759.00;;;;5034721;28;20336;-70
2024/01/12 02:20:41;;;;;;;13.50;8.10;;;;;1.20;102740.00;;;;5042767;28;20340;-70
2024/01/12 02:23:29;;;;;;;19.30;8.63;;;;;1.20;102753.00;;;;5036227;28;20276;-72
2024/01/12 02:26:15;;;;;;;13.03;7.87;;;;;1.30;102757.00;;;;5043167;28;20237;-71
2024/01/12 02:29:03;;;;;;;17.67;8.47;;;;;1.20;102749.00;;;;5038388;28;20232;-70
2024/01/12 02:31:50;;;;;;;20.60;7.37;;;;;1.20;102763.00;;;;5038676;28;20878;-67
2024/01/12 02:34:36;;;;;;;26.73;9.47;;;;;1.20;102759.00;;;;5045064;28;20225;-71
2024/01/12 02:37:23;;;;;;;17.30;8.30;;;;;1.20;102757.00;;;;5039832;28;20299;-71
2024/01/12 02:40:11;;;;;;;18.23;8.07;;;;;1.30;102773.00;;;;5041151;28;20242;-70
2024/01/12 02:42:58;;;;;;;24.33;8.03;;;;;1.20;102767.00;;;;5038197;28;20625;-71
2024/01/12 02:45:44;;;;;;;16.57;6.97;;;;;1.20;102769.00;;;;5035520;28;20846;-71
2024/01/12 02:48:30;;;;;;;18.67;8.60;;;;;1.30;102751.00;;;;5033139;28;20240;-70
2024/01/12 02:51:17;;;;;;;23.37;8.67;;;;;1.20;102751.00;;;;5040853;28;20275;-71
2024/01/12 02:54:04;;;;;;;16.80;7.37;;;;;1.20;102765.00;;;;5041364;28;20233;-71
2024/01/12 02:56:52;;;;;;;17.50;7.53;;;;;1.20;102756.00;;;;5036451;28;20720;-72
2024/01/12 02:59:38;;;;;;;15.73;7.23;;;;;1.20;102753.00;;;;5037730;28;20618;-71
2024/01/12 03:02:25;;;;;;;22.50;9.07;;;;;1.20;102754.00;;;;5043681;28;20238;-69
2024/01/12 03:05:11;;;;;;;15.83;7.73;;;;;1.10;102758.00;;;;5041710;28;20317;-71
2024/01/12 03:07:58;;;;;;;15.00;7.33;;;;;1.10;102746.00;;;;5040136;28;20302;-69
2024/01/12 03:10:44;;;;;;;12.77;7.27;;;;;1.20;102753.00;;;;5045330;28;20236;-68
2024/01/12 03:13:33;;;;;;;14.93;6.50;;;;;1.20;102746.00;;;;5043696;28;20232;-71
2024/01/12 03:16:20;;;;;;;14.77;7.37;;;;;1.20;102742.00;;;;5044306;28;20231;-72
2024/01/12 03:19:06;;;;;;;16.80;7.47;;;;;1.30;102746.00;;;;5036676;28;20287;-68
2024/01/12 03:21:53;;;;;;;10.47;6.90;;;;;1.20;102740.00;;;;5042402;28;20227;-65
2024/01/12 03:24:39;;;;;;;20.47;8.50;;;;;1.20;102748.00;;;;5042553;28;20243;-70
2024/01/12 03:27:26;;;;;;;21.13;8.47;;;;;1.20;102739.00;;;;5042399;28;20226;-68
2024/01/12 03:30:14;;;;;;;14.70;8.07;;;;;1.30;102751.00;;;;5034967;28;20299;-71
2024/01/12 03:33:01;;;;;;;13.43;7.17;;;;;1.20;102727.00;;;;5041773;28;20231;-70
2024/01/12 03:35:48;;;;;;;13.70;8.07;;;;;1.20;102728.00;;;;5035632;28;20233;-70
2024/01/12 03:38:34;;;;;;;19.53;9.20;;;;;1.20;102734.00;;;;5042586;28;20235;-71
2024/01/12 03:41:20;;;;;;;22.27;8.77;;;;;1.20;102738.00;;;;5040967;28;20235;-71
2024/01/12 03:44:06;;;;;;;21.10;8.57;;;;;1.20;102726.00;;;;5032374;28;20223;-71
2024/01/12 03:46:55;;;;;;;15.10;7.63;;;;;1.20;102734.00;;;;5041351;28;20229;-70
2024/01/12 03:49:43;;;;;;;20.57;8.50;;;;;1.40;102736.00;;;;5037095;28;20230;-70
2024/01/12 03:52:30;;;;;;;11.80;6.57;;;;;1.30;102742.00;;;;5033530;28;20285;-71
2024/01/12 03:55:16;;;;;;;14.50;8.40;;;;;1.20;102731.00;;;;5043553;28;20250;-70
2024/01/12 03:58:02;;;;;;;14.00;7.70;;;;;1.20;102729.00;;;;5034616;28;20223;-71
2024/01/12 04:00:49;;;;;;;17.47;8.77;;;;;1.30;102720.00;;;;5041939;28;20229;-71
2024/01/12 04:03:37;;;;;;;22.40;8.27;;;;;1.30;102718.00;;;;5043341;28;20391;-72
2024/01/12 04:06:23;;;;;;;21.63;8.37;;;;;1.20;102719.00;;;;5044312;28;20250;-70
2024/01/12 04:09:11;;;;;;;15.23;7.03;;;;;1.20;102715.00;;;;5038740;28;20233;-71
2024/01/12 04:11:57;;;;;;;16.30;7.93;;;;;1.20;102705.00;;;;5028782;28;20246;-69
2024/01/12 04:14:45;;;;;;;16.10;6.97;;;;;1.20;102715.00;;;;5035865;28;20274;-69
2024/01/12 04:17:31;;;;;;;20.37;9.50;;;;;1.20;102702.00;;;;5041045;28;20232;-71
2024/01/12 04:20:19;;;;;;;19.33;9.50;;;;;1.20;102697.00;;;;5038733;28;20743;-72
2024/01/12 04:23:06;;;;;;;12.17;6.80;;;;;1.30;102710.00;;;;5035713;28;20238;-71
2024/01/12 04:25:52;;;;;;;17.10;7.87;;;;;1.20;102716.00;;;;5031866;28;20304;-69
2024/01/12 04:28:38;;;;;;;10.70;6.50;;;;;1.20;102703.00;;;;5035999;28;20913;-72
2024/01/12 04:31:25;;;;;;;19.50;8.43;;;;;1.20;102699.00;;;;5033202;28;20237;-68
2024/01/12 04:34:11;;;;;;;20.67;7.67;;;;;1.30;102704.00;;;;5029089;28;20238;-72
2024/01/12 04:36:59;;;;;;;14.87;6.67;;;;;1.30;102703.00;;;;5036617;28;20295;-68
2024/01/12 04:39:45;;;;;;;21.40;7.87;;;;;1.30;102696.00;;;;5039263;28;20284;-71
2024/01/12 04:42:31;;;;;;;14.67;7.47;;;;;1.30;102693.00;;;;5044045;28;20251;-71
2024/01/12 04:45:17;;;;;;;18.60;7.60;;;;;1.30;102699.00;;;;5038678;28;20286;-70
2024/01/12 04:48:04;;;;;;;16.10;6.80;;;;;1.30;102691.00;;;;5043060;28;20227;-70
2024/01/12 04:50:50;;;;;;;17.83;7.93;;;;;1.30;102687.00;;;;5039771;28;20374;-69
2024/01/12 04:53:38;;;;;;;17.53;8.43;;;;;1.30;102684.00;;;;5036457;28;20796;-69
2024/01/12 04:56:24;;;;;;;13.23;7.07;;;;;1.20;102684.00;;;;5046590;28;20241;-70
2024/01/12 04:59:11;;;;;;;17.73;8.77;;;;;1.30;102700.00;;;;5047084;28;20233;-71
2024/01/12 05:01:57;;;;;;;14.77;7.20;;;;;1.30;102707.00;;;;5043548;28;20346;-73
2024/01/12 05:04:43;;;;;;;21.93;7.73;;;;;1.30;102713.00;;;;5040668;28;20332;-71
2024/01/12 05:07:29;;;;;;;15.70;8.00;;;;;1.20;102705.00;;;;5038008;28;20368;-71
2024/01/12 05:10:17;;;;;;;24.13;7.57;;;;;1.20;102703.00;;;;5047051;28;20235;-73
2024/01/12 05:13:04;;;;;;;17.90;7.53;;;;;1.30;102706.00;;;;5037619;28;20236;-71
2024/01/12 05:15:51;;;;;;;15.43;6.70;;;;;1.30;102699.00;;;;5045472;28;20250;-71
2024/01/12 05:18:37;;;;;;;14.30;8.03;;;;;1.30;102713.00;;;;5036230;28;20366;-71
2024/01/12 05:21:23;;;;;;;18.13;7.90;;;;;1.30;102709.00;;;;5046594;28;20237;-67
2024/01/12 05:24:10;;;;;;;20.43;9.30;;;;;1.30;102713.00;;;;5044457;28;20372;-72
2024/01/12 05:26:59;;;;;;;12.77;6.20;;;;;1.40;102724.00;;;;5039344;28;20360;-69
2024/01/12 05:29:45;;;;;;;17.20;6.67;;;;;1.40;102731.00;;;;5036411;28;20732;-68
2024/01/12 05:32:31;;;;;;;17.47;7.43;;;;;1.40;102721.00;;;;5045073;28;20248;-70
2024/01/12 05:35:18;;;;;;;19.03;9.40;;;;;1.30;102725.00;;;;5046154;28;20234;-73
2024/01/12 05:38:04;;;;;;;12.20;6.93;;;;;1.30;102719.00;;;;5038205;28;20366;-72
2024/01/12 05:40:51;;;;;;;13.37;7.20;;;;;1.30;102720.00;;;;5044878;28;20603;-71
2024/01/12 05:43:38;;;;;;;16.97;8.37;;;;;1.30;102729.00;;;;5045961;28;20696;-69
2024/01/12 05:46:25;;;;;;;14.80;8.33;;;;;1.30;102722.00;;;;5043624;28;20230;-71
2024/01/12 05:49:11;;;;;;;14.10;7.20;;;;;1.30;102722.00;;;;5042492;28;20282;-71
2024/01/12 05:51:59;;;;;;;15.47;7.03;;;;;1.30;102715.00;;;;5039351;28;20227;-70
2024/01/12 05:54:45;;;;;;;21.70;8.77;;;;;1.30;102721.00;;;;5038296;28;20690;-70
2024/01/12 05:57:32;;;;;;;19.53;8.17;;;;;1.30;102725.00;;;;5045391;28;20339;-71
2024/01/12 06:00:20;;;;;;;15.07;6.70;;;;;1.30;102726.00;;;;5042660;28;20270;-70
2024/01/12 06:03:06;;;;;;;17.93;7.73;;;;;1.30;102734.00;;;;5041498;28;20295;-71
2024/01/12 06:05:52;;;;;;;17.27;7.13;;;;;1.30;102712.00;;;;5042703;28;20238;-70
2024/01/12 06:08:39;;;;;;;16.63;7.50;;;;;1.30;102710.00;;;;5044268;28;20234;-69
2024/01/12 06:11:25;;;;;;;17.20;7.20;;;;;1.30;102710.00;;;;5044885;28;20235;-72
2024/01/12 06:14:11;;;;;;;18.07;7.10;;;;;1.30;102711.00;;;;5039994;28;20280;-71
2024/01/12 06:16:59;;;;;;;18.97;8.27;;;;;1.30;102717.00;;;;5037051;28;20301;-72
2024/01/12 06:19:46;;;;;;;20.47;8.97;;;;;1.30;102714.00;;;;5038376;28;20237;-71
2024/01/12 06:22:32;;;;;;;17.93;7.83;;;;;1.30;102717.00;;;;5045678;28;20238;-67
2024/01/12 06:25:18;;;;;;;15.03;7.27;;;;;1.30;102700.00;;;;5039679;28;20370;-67
2024/01/12 06:28:05;;;;;;;14.93;7.37;;;;;1.30;102690.00;;;;5038675;28;20655;-71
2024/01/12 06:30:53;;;;;;;17.67;7.43;;;;;1.30;102684.00;;;;5040615;28;20229;-71
2024/01/12 06:33:41;;;;;;;19.30;8.57;;;;;1.40;102694.00;;;;5044463;28;20945;-69
2024/01/12 06:36:30;;;;;;;18.07;8.27;;;;;1.50;102688.00;;;;5042914;28;20234;-71
2024/01/12 06:39:16;;;;;;;15.17;7.53;;;;;1.40;102697.00;;;;5041439;28;20236;-71
2024/01/12 06:42:03;;;;;;;14.53;7.17;;;;;1.30;102698.00;;;;5039366;28;20222;-71
2024/01/12 06:44:49;;;;;;;25.07;9.17;;;;;1.30;102698.00;;;;5038735;28;20306;-70
2024/01/12 06:47:35;;;;;;;25.47;9.00;;;;;1.30;102707.00;;;;5043811;28;20722;-71
2024/01/12 06:50:23;;;;;;;11.60;6.30;;;;;1.40;102692.00;;;;5042825;28;20234;-70
2024/01/12 06:53:10;;;;;;;16.20;7.20;;;;;1.40;102694.00;;;;5040908;28;20240;-71
2024/01/12 06:55:56;;;;;;;18.23;6.17;;;;;1.30;102689.00;;;;5041205;28;20233;-69
2024/01/12 06:58:42;;;;;;;16.33;7.40;;;;;1.40;102680.00;;;;5044476;28;20984;-70
2024/01/12 07:01:29;;;;;;;15.77;7.57;;;;;1.30;102693.00;;;;5042613;28;20232;-71
2024/01/12 07:04:15;;;;;;;19.10;6.73;;;;;1.30;102692.00;;;;5039142;28;20228;-70
2024/01/12 07:07:03;;;;;;;11.37;6.80;;;;;1.30;102699.00;;;;5043132;28;20281;-70
2024/01/12 07:09:49;;;;;;;27.97;7.53;;;;;1.30;102690.00;;;;5043235;28;20305;-71
2024/01/12 07:12:36;;;;;;;15.37;7.43;;;;;1.30;102697.00;;;;5041300;28;20356;-71
2024/01/12 07:15:22;;;;;;;9.40;6.23;;;;;1.30;102699.00;;;;5040255;28;20227;-70
2024/01/12 07:18:08;;;;;;;15.70;6.63;;;;;1.40;102696.00;;;;5034372;28;20221;-70
2024/01/12 07:20:57;;;;;;;10.67;6.63;;;;;1.40;102707.00;;;;5037472;28;20986;-70
2024/01/12 07:23:44;;;;;;;16.20;8.20;;;;;1.30;102708.00;;;;5043068;28;20231;-71
2024/01/12 07:26:30;;;;;;;10.27;6.07;;;;;1.40;102700.00;;;;5042578;28;20234;-71
2024/01/12 07:29:21;;;;;;;20.07;7.10;;;;;1.40;102707.00;;;;5040932;28;20291;-70
2024/01/12 07:32:08;;;;;;;17.20;7.80;;;;;1.40;102708.00;;;;5043219;28;20229;-70
2024/01/12 07:34:54;;;;;;;10.60;6.03;;;;;1.40;102706.00;;;;5036621;28;20264;-70
2024/01/12 07:37:41;;;;;;;11.13;5.83;;;;;1.40;102715.00;;;;5039745;28;20231;-71
2024/01/12 07:40:28;;;;;;;13.57;6.93;;;;;1.40;102720.00;;;;5032618;28;20226;-70
2024/01/12 07:43:15;;;;;;;16.70;6.77;;;;;1.40;102725.00;;;;5037403;28;20237;-71
2024/01/12 07:46:01;;;;;;;19.53;7.13;;;;;1.50;102725.00;;;;5032863;28;20829;-71
2024/01/12 07:48:50;;;;;;;17.87;7.57;;;;;1.40;102723.00;;;;5028509;28;20248;-67
2024/01/12 07:51:37;;;;;;;16.30;6.00;;;;;1.40;102719.00;;;;5038459;28;20592;-71
2024/01/12 07:54:24;;;;;;;14.37;7.40;;;;;1.40;102715.00;;;;5027372;28;20819;-71
2024/01/12 07:57:12;;;;;;;15.80;6.47;;;;;1.50;102719.00;;;;5023486;28;20244;-71
2024/01/12 07:59:58;;;;;;;11.00;6.03;;;;;1.50;102712.00;;;;5038850;28;20227;-71
2024/01/12 08:02:44;;;;;;;15.33;7.67;;;;;1.50;102725.00;;;;5028322;28;20238;-71
2024/01/12 08:05:31;;;;;;;15.87;7.20;;;;;1.50;102718.00;;;;5034942;28;20230;-71
2024/01/12 08:08:20;;;;;;;14.37;6.37;;;;;1.60;102718.00;;;;5032187;28;20243;-73
2024/01/12 08:11:07;;;;;;;11.53;4.67;;;;;1.60;102722.00;;;;5029803;28;20926;-72
2024/01/12 08:14:08;;;;;;;8.67;5.03;;;;;1.60;102731.00;;;;5029618;28;20757;-71
2024/01/12 08:16:55;;;;;;;9.13;6.53;;;;;1.60;102731.00;;;;5036350;28;20221;-69
2024/01/12 08:19:41;;;;;;;12.80;5.87;;;;;1.60;102726.00;;;;5026163;28;20281;-70
2024/01/12 08:22:27;;;;;;;11.43;5.27;;;;;1.60;102738.00;;;;5034219;28;20268;-71
2024/01/12 08:25:14;;;;;;;13.77;6.07;;;;;1.60;102727.00;;;;5028765;28;20635;-70
2024/01/12 08:28:00;;;;;;;13.60;5.77;;;;;1.60;102726.00;;;;5028039;28;20228;-70
2024/01/12 08:30:48;;;;;;;14.60;5.83;;;;;1.60;102719.00;;;;5035369;28;20235;-71
2024/01/12 08:33:34;;;;;;;12.73;6.20;;;;;1.60;102716.00;;;;5037756;28;20243;-70
2024/01/12 08:36:20;;;;;;;14.23;5.80;;;;;1.70;102715.00;;;;5035544;28;20287;-71
2024/01/12 08:39:07;;;;;;;14.93;5.83;;;;;1.70;102711.00;;;;5029402;28;20369;-71
2024/01/12 08:41:53;;;;;;;10.57;5.30;;;;;1.70;102717.00;;;;5026291;28;20234;-69
2024/01/12 08:44:40;;;;;;;12.87;5.90;;;;;1.70;102725.00;;;;5033821;28;20613;-69
2024/01/12 08:47:29;;;;;;;9.83;5.20;;;;;1.70;102729.00;;;;5038927;28;20241;-69
2024/01/12 08:50:15;;;;;;;9.03;4.73;;;;;1.70;102740.00;;;;5037810;28;20318;-69
2024/01/12 08:53:02;;;;;;;8.63;4.90;;;;;1.70;102733.00;;;;5037896;28;20916;-68
2024/01/12 08:55:49;;;;;;;9.97;4.77;;;;;1.70;102718.00;;;;5032633;28;20233;-70
2024/01/12 08:58:37;;;;;;;6.23;4.27;;;;;1.70;102705.00;;;;5033847;28;20244;-69
2024/01/12 09:01:24;;;;;;;7.93;5.57;;;;;1.80;102715.00;;;;5037043;28;20314;-69
2024/01/12 09:04:12;;;;;;;16.83;5.43;;;;;1.70;102719.00;;;;5032604;28;20229;-69
2024/01/12 09:06:58;;;;;;;6.57;4.60;;;;;1.70;102711.00;;;;5036705;28;20233;-71
2024/01/12 09:09:45;;;;;;;7.70;5.07;;;;;1.70;102709.00;;;;5038049;28;20317;-67
2024/01/12 09:12:32;;;;;;;11.60;5.27;;;;;1.90;102704.00;;;;5042117;28;20387;-71
2024/01/12 09:15:18;;;;;;;14.90;4.60;;;;;1.80;102710.00;;;;5037495;28;20771;-71
2024/01/12 09:18:06;;;;;;;7.53;4.43;;;;;1.80;102724.00;;;;5028022;28;20239;-70
2024/01/12 09:20:55;;;;;;;10.53;4.40;;;;;1.80;102714.00;;;;5042829;28;20257;-70
2024/01/12 09:23:42;;;;;;;12.80;5.60;;;;;1.90;102726.00;;;;5039690;28;20274;-70
2024/01/12 09:26:28;;;;;;;8.53;4.10;;;;;1.80;102732.00;;;;5037883;28;20230;-71
2024/01/12 09:29:14;;;;;;;10.83;5.50;;;;;1.80;102732.00;;;;5037510;28;20815;-69
2024/01/12 09:32:01;;;;;;;11.13;4.90;;;;;1.80;102728.00;;;;5042592;28;20764;-69
2024/01/12 09:34:47;;;;;;;13.40;4.70;;;;;1.80;102727.00;;;;5044608;28;20251;-71
2024/01/12 09:37:36;;;;;;;15.13;5.07;;;;;1.80;102724.00;;;;5035907;28;20227;-70
2024/01/12 09:40:22;;;;;;;11.63;5.73;;;;;1.80;102721.00;;;;5052695;28;20246;-66
2024/01/12 09:43:14;;;;;;;15.07;5.33;;;;;1.90;102717.00;;;;5047157;28;20767;-70
2024/01/12 09:46:05;;;;;;;9.20;4.90;;;;;1.90;102710.00;;;;5040769;28;23958;-69
2024/01/12 09:48:51;;;;;;;10.10;4.97;;;;;1.90;102709.00;;;;5033688;28;20776;-70
2024/01/12 09:51:37;;;;;;;9.80;5.30;;;;;2.00;102701.00;;;;5032358;28;20270;-70
2024/01/12 09:54:25;;;;;;;9.70;5.20;;;;;2.00;102697.00;;;;5034548;28;20243;-72
2024/01/12 09:57:12;;;;;;;8.77;4.20;;;;;2.10;102682.00;;;;5033843;28;20325;-70
2024/01/12 10:00:00;;;;;;;16.53;5.90;;;;;2.10;102685.00;;;;5038872;28;20251;-70
2024/01/12 10:02:47;;;;;;;12.87;5.00;;;;;2.20;102683.00;;;;5032022;28;20245;-70
2024/01/12 10:05:33;;;;;;;17.03;5.23;;;;;2.20;102686.00;;;;5030073;28;20231;-71
2024/01/12 10:08:20;;;;;;;18.20;7.07;;;;;2.30;102672.00;;;;5029578;28;20289;-70
2024/01/12 10:11:07;;;;;;;12.20;6.53;;;;;2.30;102680.00;;;;5030846;28;20584;-70
2024/01/12 10:13:54;;;;;;;7.27;4.97;;;;;2.40;102684.00;;;;5027658;28;20228;-68
2024/01/12 10:16:40;;;;;;;13.53;6.97;;;;;2.30;102688.00;;;;5033150;28;20300;-67
2024/01/12 10:19:28;;;;;;;20.10;6.40;;;;;2.30;102679.00;;;;5024897;28;20240;-69
2024/01/12 10:22:16;;;;;;;14.43;6.00;;;;;2.40;102678.00;;;;5019136;28;20237;-71
2024/01/12 10:25:04;;;;;;;14.20;7.07;;;;;2.40;102674.00;;;;5026569;28;20232;-73
2024/01/12 10:27:58;;;;;;;15.20;6.67;;;;;2.50;102660.00;;;;5033866;28;20233;-71
2024/01/12 10:30:46;;;;;;;18.17;6.27;;;;;2.50;102668.00;;;;5027198;28;20592;-70
2024/01/12 10:33:34;;;;;;;17.23;5.77;;;;;2.50;102660.00;;;;5035440;28;20243;-72
2024/01/12 10:36:22;;;;;;;14.43;6.87;;;;;2.50;102662.00;;;;5026972;28;20268;-68
2024/01/12 10:39:10;;;;;;;21.83;7.00;;;;;2.50;102668.00;;;;5032406;28;20325;-71
2024/01/12 10:42:00;;;;;;;15.77;6.30;;;;;2.60;102659.00;;;;5034981;28;20302;-69
2024/01/12 10:44:51;;;;;;;15.20;6.40;;;;;2.60;102663.00;;;;5035292;28;20234;-66
2024/01/12 10:47:40;;;;;;;12.17;5.37;;;;;2.50;102663.00;;;;5041244;28;20222;-70
2024/01/12 10:50:26;;;;;;;19.67;6.17;;;;;2.50;102655.00;;;;5030008;28;20253;-70
2024/01/12 10:53:21;;;;;;;11.73;5.60;;;;;2.50;102658.00;;;;5038645;28;20262;-69
2024/01/12 10:56:08;;;;;;;11.40;5.63;;;;;2.50;102649.00;;;;5029463;28;20239;-71
2024/01/12 10:58:55;;;;;;;16.53;6.17;;;;;2.50;102650.00;;;;5034803;28;20244;-69
2024/01/12 11:01:43;;;;;;;21.10;6.07;;;;;2.50;102652.00;;;;5035011;28;20222;-70
2024/01/12 11:04:30;;;;;;;13.17;6.93;;;;;2.50;102651.00;;;;5031875;28;20232;-70
2024/01/12 11:07:17;;;;;;;16.20;6.30;;;;;2.50;102647.00;;;;5029887;28;20656;-72
2024/01/12 11:10:05;;;;;;;14.83;7.43;;;;;2.50;102652.00;;;;5033184;28;20230;-69
2024/01/12 11:12:52;;;;;;;10.17;5.70;;;;;2.50;102644.00;;;;5036337;28;20236;-72
2024/01/12 11:15:45;;;;;;;14.33;5.87;;;;;2.50;102655.00;;;;5034187;28;20769;-67
2024/01/12 11:18:35;;;;;;;14.00;6.63;;;;;2.50;102653.00;;;;5030016;28;21069;-71
2024/01/12 11:21:25;;;;;;;15.03;5.67;;;;;2.60;102655.00;;;;5029415;28;20228;-70
2024/01/12 11:24:12;;;;;;;16.93;5.37;;;;;2.50;102648.00;;;;5033066;28;20330;-69
2024/01/12 11:26:59;;;;;;;17.37;6.60;;;;;2.50;102656.00;;;;5040716;28;20877;-70
2024/01/12 11:29:45;;;;;;;17.30;6.70;;;;;2.60;102640.00;;;;5030906;28;20848;-72
2024/01/12 11:32:32;;;;;;;7.63;4.63;;;;;2.70;102643.00;;;;5038066;28;20241;-68
2024/01/12 11:35:21;;;;;;;15.40;6.57;;;;;2.60;102640.00;;;;5040456;28;20275;-72
2024/01/12 11:38:10;;;;;;;13.60;6.30;;;;;2.60;102649.00;;;;5038158;28;20298;-70
2024/01/12 11:40:56;;;;;;;16.63;7.40;;;;;2.60;102642.00;;;;5026642;28;20241;-71
2024/01/12 11:43:48;;;;;;;15.97;6.63;;;;;2.60;102616.00;;;;5023562;28;20275;-70
2024/01/12 11:46:35;;;;;;;13.30;6.37;;;;;2.60;102621.00;;;;5022466;28;20233;-72
2024/01/12 11:49:22;;;;;;;14.40;6.30;;;;;2.60;102617.00;;;;5042421;28;20316;-69
2024/01/12 11:52:10;;;;;;;14.70;6.97;;;;;2.60;102614.00;;;;5040105;28;20247;-69
2024/01/12 11:54:56;;;;;;;22.50;6.80;;;;;2.70;102619.00;;;;5025574;28;20367;-71
2024/01/12 11:57:42;;;;;;;22.10;8.23;;;;;2.70;102610.00;;;;5033777;28;20221;-71
2024/01/12 12:00:29;;;;;;;20.60;8.03;;;;;2.70;102612.00;;;;5034356;28;20217;-69
2024/01/12 12:03:15;;;;;;;16.70;7.80;;;;;2.70;102615.00;;;;5039836;28;20287;-69
2024/01/12 12:06:01;;;;;;;16.33;7.30;;;;;2.70;102611.00;;;;5039696;28;20232;-68
2024/01/12 12:08:52;;;;;;;13.37;7.37;;;;;2.70;102594.00;;;;5039549;28;20364;-70
2024/01/12 12:11:39;;;;;;;17.23;7.47;;;;;2.60;102597.00;;;;5025214;28;20253;-70
2024/01/12 12:14:26;;;;;;;12.13;7.77;;;;;2.60;102602.00;;;;5037327;28;20890;-71
2024/01/12 12:17:13;;;;;;;18.77;6.70;;;;;2.60;102600.00;;;;5034221;28;20299;-68
2024/01/12 12:19:59;;;;;;;12.20;6.17;;;;;2.60;102595.00;;;;5034047;28;20585;-70
2024/01/12 12:22:46;;;;;;;15.43;7.37;;;;;2.60;102578.00;;;;5042890;28;20244;-71
2024/01/12 12:25:34;;;;;;;8.20;5.93;;;;;2.50;102586.00;;;;5036638;28;20259;-70
2024/01/12 12:28:21;;;;;;;13.00;5.97;;;;;2.50;102578.00;;;;5041837;28;20740;-71
2024/01/12 12:31:08;;;;;;;16.07;7.30;;;;;2.50;102579.00;;;;5040254;28;20591;-70
2024/01/12 12:33:55;;;;;;;17.60;6.77;;;;;2.50;102577.00;;;;5044144;28;20236;-68
2024/01/12 12:36:41;;;;;;;19.23;6.70;;;;;2.60;102574.00;;;;5038172;28;20252;-70
2024/01/12 12:39:28;;;;;;;21.97;7.83;;;;;2.50;102569.00;;;;5043705;28;20768;-68
2024/01/12 12:42:15;;;;;;;7.40;5.03;;;;;2.60;102555.00;;;;5037347;28;20606;-69
2024/01/12 12:45:02;;;;;;;19.03;6.53;;;;;2.60;102553.00;;;;5039655;28;20245;-68
2024/01/12 12:47:48;;;;;;;12.17;6.37;;;;;2.60;102569.00;;;;5038582;28;20283;-69
2024/01/12 12:50:36;;;;;;;18.17;6.70;;;;;2.70;102546.00;;;;5037181;28;20322;-69
2024/01/12 12:53:22;;;;;;;16.37;8.53;;;;;2.70;102536.00;;;;5035733;28;20228;-69
2024/01/12 12:56:09;;;;;;;13.80;6.80;;;;;2.70;102528.00;;;;5038732;28;20886;-70
2024/01/12 12:58:56;;;;;;;15.40;7.70;;;;;2.70;102527.00;;;;5039384;28;20240;-69
2024/01/12 13:01:42;;;;;;;22.20;8.57;;;;;2.70;102530.00;;;;5037235;28;20304;-69
2024/01/12 13:04:29;;;;;;;13.03;6.63;;;;;2.60;102513.00;;;;5036486;28;20368;-68
2024/01/12 13:07:15;;;;;;;15.37;7.30;;;;;2.60;102525.00;;;;5042751;28;20301;-66
2024/01/12 13:10:03;;;;;;;14.83;7.33;;;;;2.60;102520.00;;;;5042353;28;20248;-70
2024/01/12 13:12:51;;;;;;;13.00;6.30;;;;;2.60;102514.00;;;;5040926;28;20233;-70
2024/01/12 13:15:38;;;;;;;21.37;7.20;;;;;2.70;102503.00;;;;5035622;28;20824;-68
2024/01/12 13:18:25;;;;;;;26.00;8.17;;;;;2.70;102506.00;;;;5042218;28;20681;-68
2024/01/12 13:21:11;;;;;;;15.57;7.27;;;;;2.60;102515.00;;;;5039577;28;20221;-69
2024/01/12 13:23:57;;;;;;;16.40;7.43;;;;;2.70;102505.00;;;;5041405;28;20302;-68
2024/01/12 13:26:43;;;;;;;14.80;7.50;;;;;2.70;102497.00;;;;5038840;28;20220;-69
2024/01/12 13:29:30;;;;;;;15.00;7.63;;;;;2.70;102491.00;;;;5044526;28;20279;-69
2024/01/12 13:32:17;;;;;;;16.20;8.57;;;;;2.70;102491.00;;;;5044830;28;20733;-68
2024/01/12 13:35:05;;;;;;;12.27;8.33;;;;;2.70;102490.00;;;;5043163;28;20224;-73
2024/01/12 13:37:51;;;;;;;24.33;7.07;;;;;2.60;102496.00;;;;5040528;28;20995;-71
2024/01/12 13:40:38;;;;;;;19.37;8.77;;;;;2.60;102489.00;;;;5040031;28;20225;-68
2024/01/12 13:43:24;;;;;;;14.70;7.50;;;;;2.70;102499.00;;;;5043428;28;20236;-69
2024/01/12 13:46:10;;;;;;;16.30;7.23;;;;;2.70;102499.00;;;;5024694;28;20718;-71